createdAt,value
2018-12-23T00:02:01.792Z,52.80
2018-12-23T00:04:46.141Z,50.40
2018-12-23T00:07:33.003Z,49.60
2018-12-23T00:10:16.127Z,49.40
2018-12-23T00:13:00.169Z,50.90
2018-12-23T00:15:43.563Z,48.70
2018-12-23T00:18:27.325Z,48.10
2018-12-23T00:21:10.165Z,47.50
2018-12-23T00:23:53.905Z,48.90
2018-12-23T00:26:38.211Z,48.30
2018-12-23T00:29:19.180Z,47.00
2018-12-23T00:32:04.202Z,47.20
2018-12-23T00:34:48.242Z,47.20
2018-12-23T00:37:33.360Z,47.20
2018-12-23T00:40:18.186Z,47.20
2018-12-23T00:43:02.839Z,51.20
2018-12-23T00:45:45.980Z,47.90
2018-12-23T00:48:28.131Z,47.00
2018-12-23T00:51:13.713Z,47.20
2018-12-23T00:53:56.261Z,46.60
2018-12-23T00:56:41.361Z,46.60
2018-12-23T00:59:28.002Z,46.30
2018-12-23T01:02:12.098Z,46.20
2018-12-23T01:04:59.828Z,46.00
2018-12-23T01:07:41.985Z,48.50
2018-12-23T01:10:28.186Z,49.80
2018-12-23T01:13:17.147Z,50.00
2018-12-23T01:16:03.133Z,50.60
2018-12-23T01:21:32.112Z,47.00
2018-12-23T01:24:17.031Z,48.00
2018-12-23T01:27:05.122Z,47.70
2018-12-23T01:31:35.384Z,47.90
2018-12-23T01:34:24.096Z,47.40
2018-12-23T01:37:07.793Z,46.60
2018-12-23T01:39:53.350Z,49.60
2018-12-23T01:42:37.413Z,49.00
2018-12-23T01:45:26.751Z,50.20
2018-12-23T01:48:12.319Z,46.90
2018-12-23T01:50:59.752Z,50.30
2018-12-23T01:53:48.398Z,49.80
2018-12-23T01:56:36.091Z,49.10
2018-12-23T01:59:23.408Z,48.50
2018-12-23T02:02:11.255Z,47.40
2018-12-23T02:04:59.289Z,48.70
2018-12-23T02:07:51.072Z,47.90
2018-12-23T02:10:41.444Z,47.60
2018-12-23T02:13:40.928Z,47.10
2018-12-23T02:16:28.046Z,46.20
2018-12-23T02:19:16.130Z,46.70
2018-12-23T02:22:07.279Z,46.30
2018-12-23T02:24:55.897Z,47.30
2018-12-23T02:27:46.045Z,46.90
2018-12-23T02:30:38.121Z,47.80
2018-12-23T02:33:25.307Z,46.50
2018-12-23T02:36:10.211Z,45.80
2018-12-23T02:38:54.265Z,46.40
2018-12-23T02:41:43.411Z,44.90
2018-12-23T02:44:31.867Z,43.90
2018-12-23T02:47:16.227Z,44.20
2018-12-23T02:50:05.194Z,45.70
2018-12-23T02:52:53.193Z,49.70
2018-12-23T02:55:39.381Z,44.80
2018-12-23T02:58:27.785Z,44.00
2018-12-23T03:01:16.468Z,44.60
2018-12-23T03:04:13.383Z,45.20
2018-12-23T03:06:59.273Z,45.10
2018-12-23T03:09:47.356Z,47.80
2018-12-23T03:12:30.501Z,45.60
2018-12-23T03:15:16.276Z,46.50
2018-12-23T03:18:07.403Z,44.60
2018-12-23T03:21:20.433Z,44.60
2018-12-23T03:24:07.441Z,44.80
2018-12-23T03:26:57.488Z,44.20
2018-12-23T03:29:41.516Z,45.90
2018-12-23T03:32:27.462Z,44.00
2018-12-23T03:35:13.149Z,45.70
2018-12-23T03:37:58.110Z,48.60
2018-12-23T03:40:43.456Z,44.50
2018-12-23T03:43:28.414Z,44.70
2018-12-23T03:46:14.251Z,43.70
2018-12-23T03:48:57.416Z,43.80
2018-12-23T03:51:43.815Z,44.20
2018-12-23T03:54:28.246Z,42.40
2018-12-23T03:57:10.440Z,44.20
2018-12-23T03:59:55.145Z,43.90
2018-12-23T04:02:39.187Z,42.90
2018-12-23T04:05:23.977Z,43.70
2018-12-23T04:08:07.863Z,45.00
2018-12-23T04:10:55.891Z,50.50
2018-12-23T04:13:45.544Z,45.70
2018-12-23T04:16:31.109Z,47.60
2018-12-23T04:19:18.492Z,47.00
2018-12-23T04:22:06.231Z,44.90
2018-12-23T04:24:53.029Z,43.40
2018-12-23T04:27:39.534Z,42.40
2018-12-23T04:30:24.857Z,44.60
2018-12-23T04:33:08.283Z,48.50
2018-12-23T04:36:04.882Z,46.90
2018-12-23T04:38:55.942Z,51.80
2018-12-23T04:41:45.550Z,48.80
2018-12-23T04:44:31.521Z,49.60
2018-12-23T04:47:23.638Z,48.90
2018-12-23T04:50:16.130Z,47.70
2018-12-23T04:53:01.480Z,46.10
2018-12-23T04:55:49.559Z,44.00
2018-12-23T04:58:35.391Z,44.20
2018-12-23T05:01:21.540Z,44.90
2018-12-23T05:04:10.570Z,44.60
2018-12-23T05:07:01.973Z,44.20
2018-12-23T05:09:50.328Z,45.70
2018-12-23T05:12:43.523Z,43.50
2018-12-23T05:15:30.531Z,42.50
2018-12-23T05:18:15.610Z,45.20
2018-12-23T05:21:08.337Z,42.20
2018-12-23T05:23:58.579Z,42.20
2018-12-23T05:26:56.622Z,43.70
2018-12-23T05:29:42.274Z,48.30
2018-12-23T05:32:31.558Z,45.20
2018-12-23T05:35:25.425Z,46.70
2018-12-23T05:38:11.271Z,45.90
2018-12-23T05:41:02.135Z,43.50
2018-12-23T05:43:50.109Z,44.80
2018-12-23T05:46:39.437Z,46.40
2018-12-23T05:49:26.191Z,45.30
2018-12-23T05:52:10.847Z,42.10
2018-12-23T05:55:00.473Z,43.50
2018-12-23T05:57:49.080Z,45.70
2018-12-23T06:00:34.062Z,43.00
2018-12-23T06:03:32.591Z,44.00
2018-12-23T06:06:25.639Z,45.80
2018-12-23T06:09:13.650Z,45.70
2018-12-23T06:12:04.079Z,42.60
2018-12-23T06:14:52.437Z,44.80
2018-12-23T06:17:42.006Z,46.40
2018-12-23T06:20:37.663Z,46.00
2018-12-23T06:23:28.558Z,46.00
2018-12-23T06:26:14.611Z,49.30
2018-12-23T06:29:10.172Z,48.30
2018-12-23T06:32:19.610Z,47.20
2018-12-23T06:35:29.651Z,45.10
2018-12-23T06:38:28.592Z,45.40
2018-12-23T06:41:13.716Z,45.40
2018-12-23T06:44:11.190Z,44.00
2018-12-23T06:47:01.672Z,42.10
2018-12-23T06:49:45.618Z,42.60
2018-12-23T06:52:30.683Z,43.90
2018-12-23T06:55:16.533Z,44.00
2018-12-23T06:58:01.214Z,44.30
2018-12-23T07:00:45.674Z,44.20
2018-12-23T07:03:34.509Z,44.70
2018-12-23T07:06:19.479Z,44.40
2018-12-23T07:09:08.680Z,43.80
2018-12-23T07:12:03.639Z,46.20
2018-12-23T07:14:50.093Z,44.20
2018-12-23T07:17:37.656Z,43.40
2018-12-23T07:20:26.654Z,45.30
2018-12-23T07:23:29.576Z,43.70
2018-12-23T07:26:27.405Z,44.10
2018-12-23T07:29:17.736Z,44.40
2018-12-23T07:32:04.402Z,43.60
2018-12-23T07:34:55.561Z,43.30
2018-12-23T07:37:45.117Z,43.40
2018-12-23T07:40:32.265Z,45.90
2018-12-23T07:43:19.386Z,46.80
2018-12-23T07:46:04.663Z,47.20
2018-12-23T07:48:53.325Z,45.90
2018-12-23T07:51:53.856Z,47.60
2018-12-23T07:54:42.734Z,44.80
2018-12-23T07:57:31.573Z,45.90
2018-12-23T08:00:19.747Z,46.00
2018-12-23T08:03:05.727Z,44.90
2018-12-23T08:05:55.682Z,43.90
2018-12-23T08:08:43.692Z,44.10
2018-12-23T08:11:30.544Z,45.10
2018-12-23T08:14:13.694Z,44.70
2018-12-23T08:16:59.618Z,44.40
2018-12-23T08:19:49.386Z,46.80
2018-12-23T08:22:37.189Z,47.90
2018-12-23T08:25:23.783Z,45.20
2018-12-23T08:28:12.598Z,45.20
2018-12-23T08:31:00.747Z,44.60
2018-12-23T08:33:45.290Z,44.70
2018-12-23T08:36:34.254Z,47.20
2018-12-23T08:39:26.640Z,45.20
2018-12-23T08:42:09.103Z,45.50
2018-12-23T08:52:22.599Z,46.10
2018-12-23T08:55:12.519Z,46.20
2018-12-23T08:57:57.139Z,46.70
2018-12-23T09:00:48.768Z,46.40
2018-12-23T09:03:32.299Z,46.00
2018-12-23T09:06:18.548Z,46.10
2018-12-23T09:09:07.199Z,45.90
2018-12-23T09:11:52.222Z,46.70
2018-12-23T09:14:37.709Z,46.50
2018-12-23T09:17:23.798Z,45.40
2018-12-23T09:20:14.826Z,46.60
2018-12-23T09:22:59.370Z,48.00
2018-12-23T09:25:42.784Z,47.70
2018-12-23T09:28:26.829Z,46.30
2018-12-23T09:31:10.770Z,49.50
2018-12-23T09:33:56.213Z,50.00
2018-12-23T09:36:44.768Z,48.90
2018-12-23T09:39:31.840Z,45.90
2018-12-23T09:42:18.810Z,46.80
2018-12-23T09:45:07.155Z,45.60
2018-12-23T09:47:53.663Z,47.70
2018-12-23T09:50:44.788Z,48.80
2018-12-23T09:53:38.651Z,46.80
2018-12-23T09:56:36.008Z,47.20
2018-12-23T09:59:22.783Z,46.90
2018-12-23T10:02:13.524Z,46.30
2018-12-23T10:05:03.662Z,47.60
2018-12-23T10:07:48.913Z,46.50
2018-12-23T10:10:35.445Z,46.10
2018-12-23T10:13:19.199Z,47.90
2018-12-23T10:16:02.614Z,48.10
2018-12-23T10:18:52.246Z,49.30
2018-12-23T10:21:36.248Z,48.80
2018-12-23T10:24:20.296Z,48.70
2018-12-23T10:27:04.687Z,48.90
2018-12-23T10:29:51.617Z,47.60
2018-12-23T10:32:40.048Z,48.80
2018-12-23T10:35:25.432Z,48.30
2018-12-23T10:38:18.202Z,50.50
2018-12-23T10:40:57.784Z,50.00
2018-12-23T10:43:48.892Z,49.50
2018-12-23T10:46:34.222Z,49.70
2018-12-23T10:49:20.874Z,49.50
2018-12-23T10:52:09.750Z,50.60
2018-12-23T10:54:55.327Z,49.60
2018-12-23T10:57:40.956Z,50.40
2018-12-23T11:00:28.603Z,49.00
2018-12-23T11:03:23.333Z,48.30
2018-12-23T11:06:10.900Z,48.20
2018-12-23T11:08:59.902Z,48.00
2018-12-23T11:11:44.690Z,49.80
2018-12-23T11:14:29.968Z,49.30
2018-12-23T11:25:28.623Z,49.60
2018-12-23T11:28:21.263Z,50.20
2018-12-23T11:31:05.863Z,50.60
2018-12-23T11:33:52.786Z,50.20
2018-12-23T11:36:46.345Z,49.40
2018-12-23T11:39:33.478Z,52.20
2018-12-23T11:42:20.858Z,50.00
2018-12-23T11:45:06.925Z,51.00
2018-12-23T11:47:52.389Z,51.10
2018-12-23T11:50:50.240Z,50.10
2018-12-23T11:53:34.551Z,49.10
2018-12-23T11:56:17.417Z,51.20
2018-12-23T11:59:04.485Z,50.70
2018-12-23T12:01:51.940Z,49.20
2018-12-23T12:04:38.709Z,49.70
2018-12-23T12:07:27.730Z,49.30
2018-12-23T12:10:11.421Z,49.10
2018-12-23T12:12:59.791Z,49.60
2018-12-23T12:15:45.711Z,49.70
2018-12-23T12:18:32.025Z,49.50
2018-12-23T12:21:23.948Z,50.00
2018-12-23T12:24:30.434Z,49.40
2018-12-23T12:27:28.244Z,50.20
2018-12-23T12:30:16.889Z,50.10
2018-12-23T12:33:03.758Z,51.40
2018-12-23T12:35:55.763Z,50.00
2018-12-23T12:38:52.315Z,49.90
2018-12-23T12:41:45.715Z,50.00
2018-12-23T12:44:33.064Z,50.80
2018-12-23T12:47:17.495Z,50.20
2018-12-23T12:50:12.989Z,50.70
2018-12-23T12:53:02.962Z,49.50
2018-12-23T12:55:53.957Z,49.90
2018-12-23T12:58:37.588Z,49.30
2018-12-23T13:01:25.366Z,50.70
2018-12-23T13:04:14.579Z,49.70
2018-12-23T13:07:10.664Z,49.70
2018-12-23T13:10:05.014Z,49.40
2018-12-23T13:13:11.582Z,49.40
2018-12-23T13:16:16.006Z,50.00
2018-12-23T13:19:09.822Z,48.90
2018-12-23T13:21:57.510Z,49.10
2018-12-23T13:24:52.302Z,48.40
2018-12-23T13:27:54.166Z,49.00
2018-12-23T13:30:44.672Z,49.60
2018-12-23T13:33:37.018Z,49.40
2018-12-23T13:36:26.601Z,49.20
2018-12-23T13:39:15.876Z,49.00
2018-12-23T13:42:57.699Z,48.80
2018-12-23T13:46:17.283Z,48.70
2018-12-23T13:49:31.493Z,48.90
2018-12-23T13:52:53.380Z,48.70
2018-12-23T13:59:56.721Z,49.10
2018-12-23T14:03:24.318Z,49.10
2018-12-23T14:06:40.975Z,49.20
2018-12-23T14:10:08.604Z,49.10
2018-12-23T14:13:15.053Z,49.20
2018-12-23T14:16:07.991Z,49.20
2018-12-23T14:18:59.458Z,48.80
2018-12-23T14:21:59.773Z,48.80
2018-12-23T14:24:53.969Z,48.70
2018-12-23T14:27:40.060Z,48.50
2018-12-23T14:30:32.015Z,48.50
2018-12-23T14:33:34.023Z,48.90
2018-12-23T14:36:21.862Z,48.70
2018-12-23T14:39:31.253Z,48.30
2018-12-23T14:42:20.147Z,48.10
2018-12-23T14:45:23.707Z,48.00
2018-12-23T14:51:21.099Z,48.30
2018-12-23T14:54:17.981Z,48.40
2018-12-23T14:57:06.942Z,48.80
2018-12-23T15:00:00.517Z,48.50
2018-12-23T15:02:57.440Z,48.80
2018-12-23T15:05:54.875Z,49.00
2018-12-23T15:09:01.811Z,48.50
2018-12-23T15:11:56.867Z,48.50
2018-12-23T15:14:47.667Z,48.70
2018-12-23T15:17:40.632Z,48.80
2018-12-23T15:20:30.564Z,48.60
2018-12-23T15:23:38.069Z,48.60
2018-12-23T15:26:59.488Z,48.80
2018-12-23T15:32:55.547Z,49.10
2018-12-23T15:35:45.204Z,49.20
2018-12-23T15:38:37.447Z,49.30
2018-12-23T15:41:36.540Z,49.30
2018-12-23T15:44:45.084Z,49.20
2018-12-23T15:47:46.679Z,49.40
2018-12-23T15:50:43.938Z,49.40
2018-12-23T15:53:36.950Z,49.40
2018-12-23T15:56:26.777Z,49.50
2018-12-23T15:59:20.267Z,49.60
2018-12-23T16:02:18.105Z,49.50
2018-12-23T16:05:02.113Z,49.50
2018-12-23T16:08:01.926Z,49.70
2018-12-23T16:10:53.753Z,49.60
2018-12-23T16:13:56.162Z,49.40
2018-12-23T16:16:53.266Z,49.50
2018-12-23T16:19:56.894Z,49.50
2018-12-23T16:22:47.923Z,49.40
2018-12-23T16:25:37.148Z,49.10
2018-12-23T16:28:24.078Z,48.70
2018-12-23T16:31:14.827Z,48.80
2018-12-23T16:34:05.156Z,48.50
2018-12-23T16:36:54.046Z,48.50
2018-12-23T16:39:40.811Z,48.70
2018-12-23T16:42:28.378Z,48.50
2018-12-23T16:45:19.962Z,48.30
2018-12-23T16:48:06.463Z,48.60
2018-12-23T16:50:55.265Z,48.50
2018-12-23T16:53:53.144Z,48.50
2018-12-23T16:56:43.852Z,48.40
2018-12-23T16:59:29.154Z,48.40
2018-12-23T17:02:20.840Z,48.20
2018-12-23T17:05:08.318Z,48.90
2018-12-23T17:07:52.899Z,48.50
2018-12-23T17:10:40.237Z,48.10
2018-12-23T17:13:30.888Z,48.10
2018-12-23T17:16:18.934Z,48.00
2018-12-23T17:19:04.133Z,48.10
2018-12-23T17:21:52.729Z,48.10
2018-12-23T17:24:38.359Z,48.10
2018-12-23T17:27:27.679Z,48.10
2018-12-23T17:30:13.885Z,48.10
2018-12-23T17:33:09.227Z,48.20
2018-12-23T17:35:54.574Z,48.10
2018-12-23T17:38:41.683Z,48.30
2018-12-23T17:41:28.236Z,48.50
2018-12-23T17:44:14.956Z,48.80
2018-12-23T17:46:59.272Z,48.70
2018-12-23T17:49:47.109Z,49.00
2018-12-23T17:52:30.467Z,49.20
2018-12-23T17:55:13.606Z,49.30
2018-12-23T17:58:01.657Z,49.40
2018-12-23T18:00:48.157Z,49.00
2018-12-23T18:03:34.882Z,49.00
2018-12-23T18:06:16.904Z,48.80
2018-12-23T18:09:02.183Z,48.80
2018-12-23T18:11:47.156Z,49.10
2018-12-23T18:14:33.072Z,49.40
2018-12-23T18:17:16.158Z,48.80
2018-12-23T18:20:03.643Z,48.40
2018-12-23T18:22:52.186Z,48.40
2018-12-23T18:25:37.322Z,48.60
2018-12-23T18:28:21.364Z,48.60
2018-12-23T18:31:04.648Z,48.40
2018-12-23T18:33:49.619Z,48.20
2018-12-23T18:36:35.378Z,48.30
2018-12-23T18:39:19.884Z,48.20
2018-12-23T18:42:05.792Z,48.40
2018-12-23T18:44:51.069Z,48.70
2018-12-23T18:47:35.070Z,48.60
2018-12-23T18:50:19.731Z,48.60
2018-12-23T18:53:03.804Z,48.70
2018-12-23T18:55:48.134Z,48.70
2018-12-23T18:58:32.239Z,48.70
2018-12-23T19:01:15.614Z,48.70
2018-12-23T19:04:01.855Z,48.90
2018-12-23T19:06:47.117Z,49.20
2018-12-23T19:09:50.234Z,48.80
2018-12-23T19:13:05.924Z,49.00
2018-12-23T19:16:13.319Z,49.00
2018-12-23T19:19:38.486Z,49.00
2018-12-23T19:22:44.953Z,49.10
2018-12-23T19:26:04.303Z,49.20
2018-12-23T19:29:17.301Z,49.40
2018-12-23T19:32:30.178Z,49.50
2018-12-23T19:36:12.033Z,49.40
2018-12-23T19:39:18.800Z,49.40
2018-12-23T19:42:48.842Z,49.70
2018-12-23T19:45:59.340Z,49.60
2018-12-23T19:53:11.029Z,49.80
2018-12-23T19:56:30.163Z,49.60
2018-12-23T19:59:40.822Z,49.50
2018-12-23T20:03:13.358Z,49.60
2018-12-23T20:06:33.707Z,49.50
2018-12-23T20:09:45.129Z,49.60
2018-12-23T20:13:06.391Z,49.80
2018-12-23T20:16:14.464Z,49.40
2018-12-23T20:19:34.039Z,49.90
2018-12-23T20:22:47.231Z,50.30
2018-12-23T20:25:54.056Z,50.60
2018-12-23T20:29:08.594Z,50.50
2018-12-23T20:32:46.498Z,50.50
2018-12-23T20:36:09.389Z,50.60
2018-12-23T20:39:29.369Z,50.70
2018-12-23T20:42:53.353Z,50.70
2018-12-23T20:46:15.759Z,50.30
2018-12-23T20:49:40.705Z,50.40
2018-12-23T20:52:58.822Z,50.20
2018-12-23T20:56:18.844Z,50.30
2018-12-23T20:59:39.374Z,50.30
2018-12-23T21:03:07.740Z,49.90
2018-12-23T21:06:26.198Z,50.00
2018-12-23T21:09:40.420Z,50.10
2018-12-23T21:13:20.249Z,50.20
2018-12-23T21:16:43.357Z,50.10
2018-12-23T21:20:21.443Z,50.20
2018-12-23T21:23:37.122Z,50.30
2018-12-23T21:27:04.839Z,50.50
2018-12-23T21:30:06.435Z,50.50
2018-12-23T21:33:31.553Z,50.30
2018-12-23T21:36:59.269Z,50.10
2018-12-23T21:40:20.749Z,50.20
2018-12-23T21:43:40.742Z,50.40
2018-12-23T21:46:56.405Z,50.00
2018-12-23T21:50:10.450Z,50.00
2018-12-23T21:53:43.213Z,50.20
2018-12-23T21:57:03.774Z,50.10
2018-12-23T22:00:26.262Z,50.20
2018-12-23T22:03:58.849Z,50.10
2018-12-23T22:07:16.339Z,50.10
2018-12-23T22:10:18.426Z,49.80
2018-12-23T22:13:36.640Z,49.90
2018-12-23T22:16:22.286Z,50.20
2018-12-23T22:19:04.751Z,50.00
2018-12-23T22:21:48.481Z,50.00
2018-12-23T22:24:31.478Z,50.20
2018-12-23T22:27:14.740Z,50.20
2018-12-23T22:29:59.475Z,50.30
2018-12-23T22:32:44.657Z,50.00
2018-12-23T22:35:29.631Z,49.80
2018-12-23T22:38:11.235Z,49.80
2018-12-23T22:41:00.810Z,49.80
2018-12-23T22:43:43.064Z,50.10
2018-12-23T22:46:29.831Z,50.40
2018-12-23T22:49:13.228Z,50.40
2018-12-23T22:52:03.204Z,50.30
2018-12-23T22:54:48.579Z,50.50
2018-12-23T22:57:35.278Z,50.80
2018-12-23T23:00:19.321Z,51.30
2018-12-23T23:03:09.276Z,50.90
2018-12-23T23:05:48.931Z,50.70
2018-12-23T23:08:32.648Z,51.20
2018-12-23T23:11:16.405Z,51.00
2018-12-23T23:13:59.506Z,51.10
2018-12-23T23:16:44.220Z,51.20
2018-12-23T23:19:29.227Z,51.30
2018-12-23T23:22:14.416Z,51.20
2018-12-23T23:25:01.045Z,51.20
2018-12-23T23:27:45.224Z,51.90
2018-12-23T23:30:31.169Z,51.80
2018-12-23T23:33:14.339Z,51.30
2018-12-23T23:35:59.328Z,51.40
2018-12-23T23:38:41.474Z,52.00
2018-12-23T23:41:26.485Z,51.80
2018-12-23T23:44:08.946Z,53.30
2018-12-23T23:46:52.675Z,52.30
2018-12-23T23:49:39.461Z,52.40
2018-12-23T23:52:22.512Z,53.00
2018-12-23T23:55:05.447Z,55.40
2018-12-23T23:57:48.920Z,53.00
